Terminal Aerodrome Forecast
Issued by NWS

Home | Current Version | Previous Version | Text Only | Print | Product List | Glossary On
Versions: 1 2 3 4 5 6 7 8 9 10 11 12 13 14 15
000
FTUS45 KABQ 221100
TAFTCC
TAF
KTCC 221135Z 2212/2312 12010KT P6SM OVC015
      TEMPO 2213/2217 4SM BR SCT004 OVC007
     FM221800 15010KT P6SM OVC015
     FM230000 15010KT P6SM SCT015 OVC040
     FM230200 18010KT P6SM SCT015 OVC025
     FM230700 21010KT P6SM SCT025 OVC040=

USA.gov is the U.S. government's official web portal to all federal, state and local government web resources and services.